Time;durP1;ratioP1;P1;durP2;ratioP2;P2;SDS_P1;SDS_P2;PMS_P1;PMS_P2;Temp;Humidity;BMP_temperature;BMP_pressure;BME280_temperature;BME280_humidity;BME280_pressure;Samples;Min_cycle;Max_cycle;Signal;HPM_P1;HPM_P2
2021/06/30 00:02:04;;;;;;;;;11.50;8.50;;;;;19.99;60.63;100831.09;5078322;28;45346;-50
2021/06/30 00:04:29;;;;;;;;;8.75;8.25;;;;;19.97;61.41;100824.94;5074198;27;45343;-48
2021/06/30 00:06:55;;;;;;;;;8.25;8.25;;;;;19.97;61.07;100822.25;5074588;28;46261;-47
2021/06/30 00:09:21;;;;;;;;;10.25;9.25;;;;;19.94;61.06;100819.72;5077764;27;45768;-46
2021/06/30 00:11:47;;;;;;;;;7.25;7.25;;;;;19.94;61.21;100827.78;5064331;27;45514;-48
2021/06/30 00:14:13;;;;;;;;;7.50;7.25;;;;;19.94;61.03;100827.78;5063729;28;45303;-49
2021/06/30 00:16:40;;;;;;;;;9.00;9.00;;;;;19.92;61.34;100822.50;5091189;27;47035;-47
2021/06/30 00:19:09;;;;;;;;;9.67;7.67;;;;;19.91;61.45;100823.47;5073196;28;45411;-47
2021/06/30 00:21:34;;;;;;;;;7.67;7.67;;;;;19.90;61.17;100818.16;5074689;28;45449;-47
2021/06/30 00:24:00;;;;;;;;;9.67;8.33;;;;;19.89;61.38;100817.31;5062483;27;45776;-49
2021/06/30 00:26:25;;;;;;;;;7.00;6.00;;;;;19.87;61.20;100816.53;5066966;27;47313;-48
2021/06/30 00:28:51;;;;;;;;;8.33;8.33;;;;;19.87;61.15;100811.16;5071635;28;45822;-47
2021/06/30 00:31:18;;;;;;;;;6.75;6.00;;;;;19.85;61.12;100812.19;5068790;28;45816;-48
2021/06/30 00:33:44;;;;;;;;;9.33;8.00;;;;;19.81;61.37;100813.31;5062910;28;45606;-45
2021/06/30 00:36:11;;;;;;;;;9.67;9.00;;;;;19.79;61.47;100818.78;5078836;28;47143;-50
2021/06/30 00:38:36;;;;;;;;;10.00;9.00;;;;;19.78;61.46;100813.50;5067647;27;45359;-47
2021/06/30 00:41:02;;;;;;;;;9.25;8.00;;;;;19.77;61.61;100819.84;5081193;27;45276;-48
2021/06/30 00:43:28;;;;;;;;;9.75;7.75;;;;;19.75;61.56;100813.69;5066500;27;45654;-47
2021/06/30 00:45:53;;;;;;;;;5.00;5.00;;;;;19.73;61.71;100816.47;5076657;27;47377;-47
2021/06/30 00:48:19;;;;;;;;;7.33;7.33;;;;;19.72;61.75;100817.44;5073386;27;45443;-49
2021/06/30 00:50:44;;;;;;;;;6.00;5.67;;;;;19.72;62.10;100827.34;5073290;27;45545;-50
2021/06/30 00:53:10;;;;;;;;;6.33;6.33;;;;;19.73;62.07;100812.91;5071174;27;45275;-47
2021/06/30 00:55:35;;;;;;;;;7.67;6.00;;;;;19.71;61.94;100820.22;5071546;27;46602;-48
2021/06/30 00:58:01;;;;;;;;;7.00;7.00;;;;;19.69;62.03;100812.19;5073435;27;45465;-47
2021/06/30 01:00:27;;;;;;;;;6.33;5.67;;;;;19.66;62.12;100820.47;5071724;28;45461;-47
2021/06/30 01:02:52;;;;;;;;;6.67;6.67;;;;;19.65;62.02;100818.72;5089489;27;45422;-46
2021/06/30 01:05:18;;;;;;;;;5.67;5.67;;;;;19.65;62.31;100816.03;5078267;28;46481;-46
2021/06/30 01:07:44;;;;;;;;;6.00;4.67;;;;;19.64;62.07;100815.16;5068439;28;46730;-49
2021/06/30 01:10:10;;;;;;;;;6.00;5.33;;;;;19.62;62.51;100817.09;5080005;27;45372;-48
2021/06/30 01:12:36;;;;;;;;;6.00;6.00;;;;;19.62;62.50;100810.84;5076664;27;45628;-48
2021/06/30 01:15:07;;;;;;;;;4.67;4.67;;;;;19.60;62.58;100813.63;5061071;28;47422;-46
2021/06/30 01:17:33;;;;;;;;;5.33;5.33;;;;;19.59;62.77;100814.59;5079807;27;45389;-49
2021/06/30 01:20:00;;;;;;;;;7.00;6.00;;;;;19.59;62.73;100814.59;5070285;27;45670;-50
2021/06/30 01:22:26;;;;;;;;;8.00;7.00;;;;;19.56;62.75;100822.81;5069366;28;45478;-46
2021/06/30 01:24:53;;;;;;;;;6.00;5.00;;;;;19.55;62.90;100815.69;5075342;27;46891;-46
2021/06/30 01:27:20;;;;;;;;;7.00;5.00;;;;;19.55;63.02;100818.38;5081027;27;45357;-48
2021/06/30 01:29:47;;;;;;;;;7.67;7.33;;;;;19.56;62.99;100817.44;5080103;27;45317;-49
2021/06/30 01:32:13;;;;;;;;;9.00;8.00;;;;;19.57;63.08;100815.63;5071303;27;45502;-50
2021/06/30 01:34:38;;;;;;;;;7.00;6.00;;;;;19.56;63.23;100811.19;5078751;28;48130;-48
2021/06/30 01:37:04;;;;;;;;;5.00;5.00;;;;;19.56;62.64;100816.56;5067888;27;45627;-49
2021/06/30 01:39:29;;;;;;;;;7.33;6.33;;;;;19.55;63.05;100810.31;5073190;27;45404;-47
2021/06/30 01:41:55;;;;;;;;;5.33;5.00;;;;;19.55;63.31;100809.44;5070419;27;45500;-49
2021/06/30 01:44:21;;;;;;;;;5.00;5.00;;;;;19.54;63.55;100808.53;5066307;27;45371;-49
2021/06/30 01:46:47;;;;;;;;;6.00;4.67;;;;;19.55;63.17;100812.13;5086367;27;45616;-46
2021/06/30 01:49:13;;;;;;;;;6.00;6.00;;;;;19.56;63.18;100813.88;5076928;28;45344;-47
2021/06/30 01:51:39;;;;;;;;;7.33;6.00;;;;;19.55;63.46;100817.53;5094426;27;45635;-48
2021/06/30 01:54:11;;;;;;;;;6.00;6.00;;;;;19.53;63.51;100814.88;5073253;28;47595;-47
2021/06/30 01:56:37;;;;;;;;;5.00;5.00;;;;;19.53;63.83;100816.72;5079742;27;46028;-47
2021/06/30 01:59:06;;;;;;;;;5.00;5.00;;;;;19.53;63.49;100811.31;5078185;27;45489;-48
2021/06/30 02:01:31;;;;;;;;;5.00;5.00;;;;;19.52;63.42;100817.66;5078517;27;45580;-49
2021/06/30 02:03:58;;;;;;;;;7.00;6.00;;;;;19.49;63.11;100818.72;5077209;27;47702;-46
2021/06/30 02:06:25;;;;;;;;;8.67;7.33;;;;;19.45;63.25;100822.56;5068546;28;46072;-50
2021/06/30 02:08:53;;;;;;;;;6.67;5.33;;;;;19.42;63.43;100818.19;5072022;27;45448;-50
2021/06/30 02:11:19;;;;;;;;;8.00;8.00;;;;;19.42;63.63;100825.38;5072530;28;45534;-51
2021/06/30 02:13:45;;;;;;;;;6.33;6.00;;;;;19.38;63.28;100832.78;5073485;27;48230;-48
2021/06/30 02:16:11;;;;;;;;;6.67;6.67;;;;;19.37;63.74;100822.09;5075980;27;45557;-52
2021/06/30 02:18:37;;;;;;;;;8.00;7.00;;;;;19.40;63.85;100825.47;5063382;28;45593;-45
2021/06/30 02:21:03;;;;;;;;;9.00;7.33;;;;;19.43;63.85;100827.13;5073127;28;46858;-48
2021/06/30 02:23:28;;;;;;;;;9.00;7.00;;;;;19.46;63.75;100821.59;5071774;28;47328;-48
2021/06/30 02:25:54;;;;;;;;;9.33;9.33;;;;;19.49;63.75;100817.84;5059359;28;45627;-47
2021/06/30 02:28:19;;;;;;;;;5.67;5.67;;;;;19.51;63.83;100829.38;5058348;28;45480;-48
2021/06/30 02:30:45;;;;;;;;;7.67;7.67;;;;;19.52;63.76;100832.00;5091336;27;45638;-48
2021/06/30 02:33:10;;;;;;;;;6.67;6.67;;;;;19.54;63.37;100829.22;5065944;27;47178;-45
2021/06/30 02:35:36;;;;;;;;;7.67;7.67;;;;;19.49;63.16;100829.47;5070602;28;45626;-47
2021/06/30 02:38:02;;;;;;;;;8.33;8.33;;;;;19.45;63.14;100837.84;5072088;28;45799;-46
2021/06/30 02:40:28;;;;;;;;;8.00;7.00;;;;;19.40;63.33;100836.25;5061666;28;45761;-50
2021/06/30 02:42:54;;;;;;;;;6.67;6.00;;;;;19.37;63.32;100833.72;5068497;27;47472;-48
2021/06/30 02:45:21;;;;;;;;;8.00;8.00;;;;;19.34;63.38;100838.44;5071650;27;45401;-46
2021/06/30 02:47:49;;;;;;;;;8.33;8.33;;;;;19.33;63.89;100834.00;5072371;27;45750;-47
2021/06/30 02:50:16;;;;;;;;;9.00;7.33;;;;;19.34;63.37;100835.75;5071430;27;45586;-50
2021/06/30 02:52:43;;;;;;;;;7.33;7.33;;;;;19.33;63.39;100836.69;5071534;27;49787;-46
2021/06/30 02:55:09;;;;;;;;;7.33;7.33;;;;;19.29;63.11;100841.34;5070868;27;45685;-49
2021/06/30 02:57:35;;;;;;;;;8.33;7.33;;;;;19.25;63.36;100845.19;5068629;27;45600;-47
2021/06/30 03:00:04;;;;;;;;;9.33;9.33;;;;;19.23;63.65;100844.41;5071181;28;45741;-46
2021/06/30 03:02:29;;;;;;;;;7.00;7.00;;;;;19.22;63.38;100849.88;5070153;28;48300;-46
2021/06/30 03:04:55;;;;;;;;;8.67;8.33;;;;;19.21;63.10;100840.94;5071690;27;45482;-45
2021/06/30 03:07:20;;;;;;;;;9.67;9.00;;;;;19.21;63.51;100850.84;5072231;28;45408;-47
2021/06/30 03:09:46;;;;;;;;;9.00;8.00;;;;;19.22;62.89;100848.06;5059197;28;45801;-46
2021/06/30 03:12:11;;;;;;;;;9.67;9.67;;;;;19.19;62.93;100844.66;5070825;28;48242;-45
2021/06/30 03:14:37;;;;;;;;;9.00;8.00;;;;;19.14;62.88;100842.22;5065731;27;45484;-46
2021/06/30 03:17:03;;;;;;;;;10.33;10.33;;;;;19.13;63.22;100845.00;5074467;27;45868;-49
2021/06/30 03:19:28;;;;;;;;;6.67;6.67;;;;;19.13;63.17;100856.63;5069852;27;45321;-47
2021/06/30 03:21:54;;;;;;;;;8.33;6.67;;;;;19.14;63.26;100852.97;5057243;28;45429;-49
2021/06/30 03:24:19;;;;;;;;;7.50;7.50;;;;;19.18;63.40;100857.22;5070522;27;45353;-49
2021/06/30 03:26:45;;;;;;;;;12.00;10.67;;;;;19.20;63.39;100858.03;5070381;27;45605;-49
2021/06/30 03:29:10;;;;;;;;;8.00;8.00;;;;;19.22;62.95;100853.44;5065249;27;45701;-48
2021/06/30 03:31:36;;;;;;;;;10.67;10.00;;;;;19.23;62.85;100857.00;5076770;27;48537;-47
2021/06/30 03:34:01;;;;;;;;;8.00;8.00;;;;;19.22;62.88;100856.13;5066935;27;45337;-48
2021/06/30 03:36:27;;;;;;;;;10.33;10.33;;;;;19.25;62.87;100855.09;5073202;28;45693;-49
2021/06/30 03:38:53;;;;;;;;;7.67;7.67;;;;;19.26;62.23;100857.69;5077145;28;45576;-48
2021/06/30 03:41:19;;;;;;;;;8.67;8.67;;;;;19.25;62.50;100858.63;5066990;27;45540;-47
2021/06/30 03:43:44;;;;;;;;;11.00;11.00;;;;;19.27;62.56;100856.72;5077333;27;45957;-46
2021/06/30 03:46:11;;;;;;;;;10.67;10.33;;;;;19.28;62.56;100857.59;5073611;27;45484;-49
2021/06/30 03:48:36;;;;;;;;;13.00;10.33;;;;;19.30;62.66;100850.31;5065008;27;45365;-50
2021/06/30 03:51:03;;;;;;;;;15.00;13.67;;;;;19.31;62.50;100860.09;5069016;27;48840;-50
2021/06/30 03:53:28;;;;;;;;;18.75;18.00;;;;;19.33;62.43;100858.22;5071302;28;45659;-49
2021/06/30 03:55:54;;;;;;;;;17.00;16.00;;;;;19.35;62.36;100869.78;5061135;28;45367;-47
2021/06/30 03:58:19;;;;;;;;;21.00;16.00;;;;;19.36;62.52;100868.81;5071390;28;45504;-50
2021/06/30 04:00:45;;;;;;;;;14.00;14.00;;;;;19.37;62.60;100865.16;5060866;28;47062;-50
2021/06/30 04:03:10;;;;;;;;;16.50;16.25;;;;;19.38;62.31;100867.75;5060007;28;45459;-47
2021/06/30 04:05:36;;;;;;;;;18.25;15.50;;;;;19.37;62.34;100857.97;5067604;28;45445;-48
2021/06/30 04:08:01;;;;;;;;;13.50;11.25;;;;;19.38;62.19;100867.75;5064370;27;45238;-46
2021/06/30 04:10:27;;;;;;;;;9.33;9.33;;;;;19.40;62.15;100862.28;5077838;28;47090;-50
2021/06/30 04:12:52;;;;;;;;;13.50;13.50;;;;;19.39;62.49;100868.63;5076982;28;45381;-49
2021/06/30 04:15:18;;;;;;;;;15.25;12.25;;;;;19.38;62.49;100861.50;5080259;27;45529;-49
2021/06/30 04:17:43;;;;;;;;;13.50;12.00;;;;;19.38;62.40;100874.97;5082813;27;45516;-49
2021/06/30 04:20:10;;;;;;;;;14.50;12.75;;;;;19.38;62.17;100864.19;5087237;27;47671;-48
2021/06/30 04:22:36;;;;;;;;;15.25;10.50;;;;;19.37;62.40;100857.97;5077656;28;45277;-48
2021/06/30 04:25:06;;;;;;;;;9.50;9.50;;;;;19.40;62.34;100862.28;5092728;27;45460;-48
2021/06/30 04:27:33;;;;;;;;;9.00;9.00;;;;;19.38;61.88;100859.69;5093825;27;45525;-50
2021/06/30 04:29:59;;;;;;;;;10.75;10.75;;;;;19.38;62.25;100866.91;5083277;27;45474;-46
2021/06/30 04:32:25;;;;;;;;;9.50;7.75;;;;;19.34;62.20;100873.41;5081347;27;45997;-46
2021/06/30 04:34:50;;;;;;;;;15.25;13.00;;;;;19.33;62.32;100874.38;5071458;28;45287;-46
2021/06/30 04:37:16;;;;;;;;;12.50;10.75;;;;;19.32;62.08;100873.50;5098903;27;45492;-48
2021/06/30 04:39:41;;;;;;;;;10.75;9.75;;;;;19.31;62.18;100874.47;5080379;27;47419;-47
2021/06/30 04:42:07;;;;;;;;;11.75;11.25;;;;;19.32;62.15;100878.03;5084100;27;45668;-50
2021/06/30 04:44:33;;;;;;;;;10.50;10.00;;;;;19.31;62.71;100881.63;5079679;28;45695;-47
2021/06/30 04:46:58;;;;;;;;;10.25;10.25;;;;;19.30;62.03;100874.50;5080425;27;45491;-47
2021/06/30 04:49:23;;;;;;;;;9.50;8.00;;;;;19.29;62.39;100878.16;5082694;27;47191;-49
2021/06/30 04:51:49;;;;;;;;;9.25;9.25;;;;;19.29;62.59;100870.97;5083901;28;45429;-51
2021/06/30 04:54:17;;;;;;;;;9.33;8.33;;;;;19.30;62.46;100878.06;5099693;27;45575;-48
2021/06/30 04:56:42;;;;;;;;;10.00;10.00;;;;;19.30;62.26;100871.81;5081113;27;45527;-49
2021/06/30 04:59:08;;;;;;;;;11.75;10.75;;;;;19.28;62.54;100876.44;5083184;27;47029;-50
2021/06/30 05:01:34;;;;;;;;;9.00;8.75;;;;;19.28;62.38;100880.00;5077658;27;45474;-48
2021/06/30 05:04:00;;;;;;;;;11.33;7.67;;;;;19.29;62.51;100878.16;5077470;27;45549;-48
2021/06/30 05:06:25;;;;;;;;;8.00;7.33;;;;;19.30;62.46;100879.91;5079224;27;45579;-46
2021/06/30 05:08:51;;;;;;;;;9.25;8.75;;;;;19.28;62.23;100881.81;5079521;27;45791;-46
2021/06/30 05:11:16;;;;;;;;;10.00;9.00;;;;;19.27;62.75;100883.63;5072718;27;45822;-46
2021/06/30 05:13:42;;;;;;;;;12.33;9.00;;;;;19.25;62.66;100884.69;5070912;27;46058;-46
2021/06/30 05:16:07;;;;;;;;;6.67;5.33;;;;;19.25;62.60;100882.00;5073430;27;45635;-49
2021/06/30 05:18:33;;;;;;;;;10.50;10.25;;;;;19.27;62.96;100882.75;5071648;27;46796;-45
2021/06/30 05:20:59;;;;;;;;;8.33;8.33;;;;;19.27;62.56;100890.84;5084811;27;45548;-47
2021/06/30 05:23:25;;;;;;;;;8.75;8.75;;;;;19.28;63.07;100889.88;5070525;27;47152;-47
2021/06/30 05:25:50;;;;;;;;;9.75;8.50;;;;;19.28;62.92;100890.75;5070642;27;46073;-46
2021/06/30 05:28:16;;;;;;;;;9.33;9.33;;;;;19.29;62.81;100891.63;5086611;27;45588;-47
2021/06/30 05:30:42;;;;;;;;;9.75;9.75;;;;;19.31;63.17;100903.16;5070428;27;45538;-47
2021/06/30 05:33:08;;;;;;;;;8.00;8.00;;;;;19.30;62.86;100896.03;5069427;27;45652;-46
2021/06/30 05:35:34;;;;;;;;;11.00;8.00;;;;;19.27;63.14;100897.09;5071068;27;49652;-46
2021/06/30 05:38:00;;;;;;;;;7.67;7.67;;;;;19.28;62.91;100900.66;5065283;28;47121;-45
2021/06/30 05:40:25;;;;;;;;;8.33;8.33;;;;;19.28;62.92;100904.19;5074188;27;45816;-46
2021/06/30 05:42:51;;;;;;;;;7.25;6.25;;;;;19.27;63.24;100904.28;5078951;27;45571;-46
2021/06/30 05:45:17;;;;;;;;;8.00;6.00;;;;;19.25;63.05;100908.91;5079601;27;45591;-47
2021/06/30 05:47:44;;;;;;;;;9.00;8.00;;;;;19.22;63.00;100903.69;5074666;27;47230;-50
2021/06/30 05:50:13;;;;;;;;;7.67;6.00;;;;;19.19;63.05;100904.72;5077923;27;46080;-46
2021/06/30 05:52:40;;;;;;;;;5.67;5.00;;;;;19.16;63.23;100912.06;5066942;28;45385;-47
2021/06/30 05:55:07;;;;;;;;;9.75;8.75;;;;;19.10;63.32;100906.09;5074146;28;45426;-50
2021/06/30 05:57:33;;;;;;;;;5.67;5.33;;;;;19.10;63.15;100911.47;5079609;27;45344;-47
2021/06/30 05:59:59;;;;;;;;;8.00;7.33;;;;;19.08;63.49;100910.69;5072386;27;45785;-47
2021/06/30 06:02:24;;;;;;;;;6.67;6.67;;;;;19.09;63.71;100915.09;5077534;27;45593;-49
2021/06/30 06:04:50;;;;;;;;;7.00;6.33;;;;;19.11;63.47;100915.03;5068235;27;45234;-48
2021/06/30 06:07:16;;;;;;;;;5.33;5.33;;;;;19.12;63.34;100908.69;5066255;27;47967;-47
2021/06/30 06:09:41;;;;;;;;;5.00;5.00;;;;;19.14;63.42;100917.53;5069839;27;45728;-46
2021/06/30 06:12:07;;;;;;;;;7.50;6.50;;;;;19.18;63.52;100920.94;5068075;27;45517;-48
2021/06/30 06:14:32;;;;;;;;;5.50;5.50;;;;;19.24;63.51;100923.31;5068507;27;45689;-46
2021/06/30 06:16:58;;;;;;;;;7.33;7.33;;;;;19.26;63.27;100916.88;5071275;27;46100;-46
2021/06/30 06:19:25;;;;;;;;;6.33;6.33;;;;;19.29;63.62;100921.22;5069328;27;46299;-47
2021/06/30 06:21:51;;;;;;;;;4.00;4.00;;;;;19.31;63.16;100930.06;5070579;27;46278;-48
2021/06/30 06:24:17;;;;;;;;;6.00;6.00;;;;;19.32;63.35;100927.31;5067073;27;46024;-47
2021/06/30 06:26:48;;;;;;;;;9.50;9.50;;;;;19.33;62.99;100931.75;5072290;27;45861;-47
2021/06/30 06:29:16;;;;;;;;;8.00;8.00;;;;;19.36;62.97;100930.72;5075084;27;45496;-50
2021/06/30 06:31:42;;;;;;;;;7.50;7.50;;;;;19.35;63.07;100932.53;5071062;27;45393;-50
2021/06/30 06:34:08;;;;;;;;;7.00;7.00;;;;;19.35;62.73;100935.22;5089976;27;45537;-48
2021/06/30 06:36:35;;;;;;;;;6.50;6.50;;;;;19.37;62.71;100938.69;5074115;27;45703;-51
2021/06/30 06:39:04;;;;;;;;;5.67;5.67;;;;;19.38;62.62;100943.13;5073978;27;45629;-47
2021/06/30 06:41:31;;;;;;;;;13.00;13.00;;;;;19.33;62.37;100939.81;5088818;27;45833;-50
2021/06/30 06:43:57;;;;;;;;;6.50;6.50;;;;;19.30;62.64;100941.78;5070858;27;45717;-48
2021/06/30 06:46:22;;;;;;;;;7.00;6.00;;;;;19.30;62.54;100952.56;5073131;27;47846;-49
2021/06/30 06:48:48;;;;;;;;;7.00;7.00;;;;;19.30;62.44;100942.66;5070513;27;45372;-48
2021/06/30 06:51:13;;;;;;;;;6.67;6.67;;;;;19.32;62.70;100945.28;5072773;27;45519;-47
2021/06/30 06:53:39;;;;;;;;;8.25;7.25;;;;;19.33;63.04;100952.41;5071226;28;46898;-47
2021/06/30 06:56:09;;;;;;;;;9.00;9.00;;;;;19.35;62.64;100947.81;5069154;27;48324;-47
2021/06/30 06:58:34;;;;;;;;;7.33;7.33;;;;;19.38;62.47;100956.56;5073590;28;46317;-48
2021/06/30 07:01:00;;;;;;;;;6.67;6.00;;;;;19.38;62.51;100950.31;5070385;27;45408;-49
2021/06/30 07:03:25;;;;;;;;;8.33;7.00;;;;;19.37;62.87;100952.16;5072961;27;45467;-48
2021/06/30 07:05:51;;;;;;;;;9.00;7.67;;;;;19.38;62.66;100945.81;5069317;27;48016;-46
2021/06/30 07:08:16;;;;;;;;;8.33;8.33;;;;;19.42;62.78;100946.50;5067409;27;49668;-52
2021/06/30 07:10:42;;;;;;;;;10.67;8.33;;;;;19.45;62.33;100943.66;5069853;27;49481;-47
2021/06/30 07:13:07;;;;;;;;;11.67;8.00;;;;;19.43;61.64;100945.53;5065997;27;46230;-51
2021/06/30 07:15:33;;;;;;;;;7.00;7.00;;;;;19.42;61.76;100946.50;5067507;28;48236;-48
2021/06/30 07:17:58;;;;;;;;;6.67;6.67;;;;;19.41;61.71;100955.53;5062593;27;49348;-48
2021/06/30 07:20:24;;;;;;;;;8.00;8.00;;;;;19.41;61.83;100955.53;5083479;27;46972;-47
2021/06/30 07:22:49;;;;;;;;;10.67;8.00;;;;;19.41;61.60;100950.16;5071526;28;45872;-48
2021/06/30 07:25:19;;;;;;;;;6.33;6.33;;;;;19.43;61.65;100953.63;5071575;27;48377;-49
2021/06/30 07:27:44;;;;;;;;;6.00;6.00;;;;;19.45;62.22;100961.63;5069349;28;45420;-50
2021/06/30 07:30:10;;;;;;;;;11.33;9.00;;;;;19.47;62.26;100955.22;5084376;27;45863;-49
2021/06/30 07:32:36;;;;;;;;;10.00;10.00;;;;;19.50;61.73;100962.25;5069324;27;46665;-51
2021/06/30 07:35:01;;;;;;;;;7.67;7.67;;;;;19.52;62.06;100960.34;5075358;27;49014;-48
2021/06/30 07:37:27;;;;;;;;;8.67;8.67;;;;;19.54;61.81;100958.41;5071302;27;45512;-48
2021/06/30 07:39:52;;;;;;;;;8.00;7.67;;;;;19.56;61.49;100968.19;5069252;27;45636;-52
2021/06/30 07:42:18;;;;;;;;;8.67;7.67;;;;;19.62;61.81;100962.47;5070307;27;45554;-50
2021/06/30 07:44:45;;;;;;;;;6.00;6.00;;;;;19.67;61.83;100971.16;5068460;27;47516;-50
2021/06/30 07:47:10;;;;;;;;;5.67;5.67;;;;;19.73;61.84;100975.34;5072391;27;45463;-51
2021/06/30 07:49:37;;;;;;;;;9.00;9.00;;;;;19.78;61.21;100978.63;5068842;27;45483;-48
2021/06/30 07:52:02;;;;;;;;;7.33;7.00;;;;;19.79;61.09;100974.13;5067745;27;46062;-51
2021/06/30 07:54:28;;;;;;;;;8.00;8.00;;;;;19.81;60.76;100975.78;5086148;27;47081;-52
2021/06/30 07:56:53;;;;;;;;;8.00;8.00;;;;;19.87;61.20;100977.25;5069541;27;45555;-50
2021/06/30 07:59:19;;;;;;;;;10.00;8.00;;;;;19.96;60.92;100974.06;5071178;28;45609;-48
2021/06/30 08:01:44;;;;;;;;;10.33;10.33;;;;;20.06;60.59;100977.94;5069570;28;45665;-47
2021/06/30 08:04:10;;;;;;;;;13.00;10.67;;;;;20.19;61.04;100970.91;5069438;28;47244;-49
2021/06/30 08:06:36;;;;;;;;;10.33;10.00;;;;;20.32;60.01;100971.06;5065902;28;45624;-48
2021/06/30 08:09:03;;;;;;;;;7.00;7.00;;;;;20.40;60.13;100963.41;5076091;27;45421;-54
2021/06/30 08:11:29;;;;;;;;;10.33;8.67;;;;;20.49;59.63;100970.13;5066703;27;45677;-52
2021/06/30 08:13:55;;;;;;;;;9.00;9.00;;;;;20.54;59.22;100963.50;5075977;27;46065;-50
2021/06/30 08:16:22;;;;;;;;;13.67;12.00;;;;;20.61;59.05;100969.41;5070476;27;46142;-50
2021/06/30 08:18:48;;;;;;;;;9.00;9.00;;;;;20.66;59.42;100967.28;5076362;27;45321;-52
2021/06/30 08:21:16;;;;;;;;;7.00;7.00;;;;;20.69;58.60;100967.09;5069827;27;45736;-49
2021/06/30 08:23:42;;;;;;;;;10.67;10.67;;;;;20.71;58.48;100967.91;5060940;27;48029;-51
2021/06/30 08:26:08;;;;;;;;;8.00;8.00;;;;;20.69;58.37;100974.31;5072997;28;45956;-48
2021/06/30 08:28:35;;;;;;;;;11.00;11.00;;;;;20.68;58.48;100973.44;5071886;27;45490;-46
2021/06/30 08:31:02;;;;;;;;;13.00;12.00;;;;;20.65;58.60;100972.78;5058961;28;45365;-50
2021/06/30 08:33:27;;;;;;;;;12.67;11.00;;;;;20.64;58.43;100973.75;5072237;27;48093;-49
2021/06/30 08:35:55;;;;;;;;;11.75;10.75;;;;;20.66;58.43;100977.22;5066239;27;45329;-46
2021/06/30 08:38:21;;;;;;;;;14.67;12.67;;;;;20.69;58.56;100979.72;5070032;27;45451;-47
2021/06/30 08:40:47;;;;;;;;;12.00;11.00;;;;;20.73;57.98;100979.47;5067959;28;45549;-48
2021/06/30 08:43:14;;;;;;;;;16.67;14.00;;;;;20.81;58.59;100978.97;5070383;27;47871;-49
2021/06/30 08:45:41;;;;;;;;;24.25;21.50;;;;;20.87;58.52;100975.94;5076927;27;45278;-49
2021/06/30 08:48:08;;;;;;;;;15.00;13.50;;;;;20.94;58.09;100971.88;5092718;27;45655;-50
2021/06/30 08:50:36;;;;;;;;;16.50;16.50;;;;;21.05;57.70;100971.22;5090648;27;45606;-50
2021/06/30 08:53:02;;;;;;;;;14.75;14.75;;;;;21.16;58.03;100975.00;5070626;28;48331;-50
2021/06/30 08:55:28;;;;;;;;;10.00;10.00;;;;;21.21;56.89;100969.31;5075357;27;45320;-51
2021/06/30 08:57:53;;;;;;;;;11.75;8.50;;;;;21.17;56.56;100968.66;5071992;27;45412;-48
2021/06/30 09:00:19;;;;;;;;;11.50;11.50;;;;;21.09;56.31;100962.88;5074486;27;45373;-52
2021/06/30 09:02:55;;;;;;;;;10.00;9.50;;;;;21.02;56.49;100966.03;5072834;27;47232;-51
2021/06/30 09:07:53;;;;;;;;;13.50;13.50;;;;;21.06;57.10;100967.56;5076929;27;45529;-49
2021/06/30 09:10:39;;;;;;;;;11.50;11.50;;;;;21.13;57.34;100967.13;5060596;28;45474;-47
2021/06/30 09:13:07;;;;;;;;;6.75;6.75;;;;;21.21;56.20;100963.91;5060026;27;47115;-51
2021/06/30 09:15:37;;;;;;;;;11.50;10.75;;;;;21.29;56.28;100964.34;5075703;27;45371;-55
2021/06/30 09:18:28;;;;;;;;;11.00;11.00;;;;;21.32;55.69;100964.16;5080150;27;45757;-51
2021/06/30 09:21:17;;;;;;;;;11.00;10.25;;;;;21.34;56.02;100962.25;5075491;27;45571;-48
2021/06/30 09:24:06;;;;;;;;;13.00;12.00;;;;;21.38;55.68;100958.38;5080455;27;47446;-51
2021/06/30 09:26:35;;;;;;;;;14.75;12.00;;;;;21.43;56.33;100964.34;5066264;28;45314;-49
2021/06/30 09:29:12;;;;;;;;;8.25;8.25;;;;;21.51;55.51;100966.59;5076908;28;45697;-48
2021/06/30 09:31:42;;;;;;;;;10.75;10.75;;;;;21.50;55.47;100972.09;5078151;27;45318;-50
2021/06/30 09:34:08;;;;;;;;;10.50;10.50;;;;;21.49;55.71;100978.44;5073312;27;47631;-50
2021/06/30 09:36:55;;;;;;;;;11.25;9.75;;;;;21.51;55.39;100977.38;5072910;27;45544;-54
2021/06/30 09:39:21;;;;;;;;;10.75;9.25;;;;;21.56;55.63;100982.47;5065185;27;45600;-52
2021/06/30 09:41:47;;;;;;;;;10.00;10.00;;;;;21.59;55.17;100982.28;5078567;28;45560;-50
2021/06/30 09:44:21;;;;;;;;;10.25;9.25;;;;;21.62;55.29;100988.38;5095412;27;47721;-54
2021/06/30 09:46:51;;;;;;;;;8.50;8.25;;;;;21.60;54.64;100986.75;5064444;27;45506;-52
2021/06/30 09:49:19;;;;;;;;;11.50;9.50;;;;;21.50;55.48;100985.59;5065643;27;45255;-52
2021/06/30 09:51:47;;;;;;;;;11.50;10.25;;;;;21.47;54.75;100989.34;5080258;27;45294;-53
2021/06/30 09:54:21;;;;;;;;;12.75;12.75;;;;;21.45;55.40;100988.56;5049358;28;47192;-53
2021/06/30 09:57:06;;;;;;;;;10.25;10.00;;;;;21.48;54.85;100988.38;5063061;27;45858;-51
2021/06/30 09:59:40;;;;;;;;;10.25;10.25;;;;;21.40;54.79;100988.84;5087379;27;45361;-53
2021/06/30 10:02:12;;;;;;;;;9.00;9.00;;;;;21.31;54.59;100989.41;5076434;27;45419;-50
2021/06/30 10:04:56;;;;;;;;;11.50;10.25;;;;;21.28;54.95;100991.44;5060240;28;46964;-53
2021/06/30 10:07:24;;;;;;;;;13.00;13.00;;;;;21.22;54.55;100991.81;5072624;28;45277;-52
2021/06/30 10:09:49;;;;;;;;;10.75;10.75;;;;;21.17;54.55;100992.94;5073208;27;45429;-52
2021/06/30 10:12:22;;;;;;;;;11.50;10.75;;;;;21.14;54.69;100995.84;5063813;27;45628;-54
2021/06/30 10:14:48;;;;;;;;;11.50;11.25;;;;;21.12;54.83;100992.38;5078138;27;46829;-52
2021/06/30 10:17:15;;;;;;;;;13.00;12.00;;;;;21.16;55.43;100998.44;5074353;27;45478;-50
2021/06/30 10:19:42;;;;;;;;;12.50;11.25;;;;;21.16;54.97;100999.31;5062071;28;45471;-55
2021/06/30 10:22:10;;;;;;;;;10.75;10.75;;;;;21.18;54.63;100999.19;5074166;27;45367;-52
2021/06/30 10:24:37;;;;;;;;;9.75;9.75;;;;;21.20;54.40;101005.38;5062476;27;45695;-55
2021/06/30 10:27:05;;;;;;;;;8.75;8.75;;;;;21.19;54.66;101006.34;5070381;28;45447;-54
2021/06/30 10:29:33;;;;;;;;;9.75;9.75;;;;;21.14;54.66;101003.94;5062083;27;45459;-52
2021/06/30 10:32:02;;;;;;;;;12.25;11.50;;;;;21.10;54.44;101006.91;5060826;27;45628;-48
2021/06/30 10:34:46;;;;;;;;;12.50;10.50;;;;;21.05;54.60;100998.22;5074206;28;46358;-52
2021/06/30 10:37:25;;;;;;;;;10.75;9.50;;;;;20.99;54.67;100996.78;5069884;28;45339;-53
2021/06/30 10:39:54;;;;;;;;;12.50;11.50;;;;;20.92;54.60;100999.91;5077567;28;45520;-55
2021/06/30 10:42:36;;;;;;;;;10.25;9.75;;;;;20.87;54.49;101000.22;5076300;27;45305;-50
2021/06/30 10:45:17;;;;;;;;;9.75;8.25;;;;;20.93;54.91;100997.13;5071542;28;48252;-53
2021/06/30 10:47:55;;;;;;;;;8.75;8.75;;;;;21.05;54.93;100999.09;5085047;27;45327;-51
2021/06/30 10:50:47;;;;;;;;;11.25;10.50;;;;;21.23;55.15;100993.53;5077709;27;45969;-50
2021/06/30 10:53:15;;;;;;;;;13.25;13.25;;;;;21.29;54.25;100999.44;5064211;27;45534;-53
2021/06/30 10:55:51;;;;;;;;;14.00;10.75;;;;;21.25;54.71;101002.41;5077072;27;47465;-52
2021/06/30 10:58:24;;;;;;;;;12.25;11.50;;;;;21.24;55.01;101001.53;5073721;28;45509;-51
2021/06/30 11:00:58;;;;;;;;;12.00;12.00;;;;;21.31;54.88;101008.31;5074347;28;45571;-53
2021/06/30 11:03:25;;;;;;;;;14.00;11.75;;;;;21.39;54.42;101003.31;5080342;27;45407;-51
2021/06/30 11:06:13;;;;;;;;;12.25;11.00;;;;;21.50;54.50;100999.97;5061748;27;46627;-51
2021/06/30 11:08:50;;;;;;;;;11.25;11.25;;;;;21.60;53.67;101003.81;5058727;28;45652;-51
2021/06/30 11:11:27;;;;;;;;;13.50;10.50;;;;;21.73;53.78;101009.31;5074641;27;45386;-53
2021/06/30 11:14:00;;;;;;;;;13.50;13.50;;;;;21.93;54.35;100999.91;5074587;28;45611;-49
2021/06/30 11:19:16;;;;;;;;;16.00;14.75;;;;;22.29;52.60;101002.09;5076697;28;46727;-52
2021/06/30 11:21:45;;;;;;;;;15.50;14.00;;;;;22.44;53.20;101005.63;5066539;28;46006;-51
2021/06/30 11:24:40;;;;;;;;;12.75;9.50;;;;;22.52;51.97;100998.72;5073747;27;45282;-51
2021/06/30 11:30:00;;;;;;;;;11.50;11.50;;;;;22.49;51.01;101008.91;5077978;28;45460;-52